Main page
METAR-TAF:

METAR-TAF

Airports :

Philip S. W. Goldson International Airport

Belize City, Belize

latitude: 17-32N, longitude: 088-18W, elevation: 5 m

Current weather observation

The report was made 1 hour and 18 minutes ago, at 20:00 UTC
Wind 6 kt from the Northeast
Temperature 31°C
Humidity 75%
Pressure 1009 hPa
Visibility: 9000 m
Scattered clouds at a height of 2200 ft

METAR: MZBZ 192000Z 05006KT 9000 SCT022 31/26 A2981 Q1009 NOSIG RMK HZ

Time: 15:18 (21:18 UTC)

Forecast

The report was made 6 hours and 18 minutes ago, at 15:00 UTC
Forecast valid from 19 at 18 UTC to 20 at 18 UTC
Wind 10 kt from the East
Visibility 10 km or more
Scattered clouds at a height of 2400 ft

TAF: MZBZ 191500Z 1918/2018 09010KT 9999 SCT024

Weather observations and forecasts of more than 4000 airports (METAR and TAF reports).

The available stations are represented by yellow and red dots on the map.

Hover mouse over dot to see the name of the station.

Then click to see weather observations and forecasts.

To change the map : click on the green buttons with a black cross to zoom in, on the green button with a dash to zoom out, or on the green arrows for adjacent maps.


METAR-TAF: